sensor_id;sensor_type;location;lat;lon;timestamp;P1;durP1;ratioP1;P2;durP2;ratioP2
22628;SDS011;11481;53.694;9.910;2024-01-16T00:00:56;5.03;;;3.38;;
22628;SDS011;11481;53.694;9.910;2024-01-16T00:03:23;9.57;;;3.90;;
22628;SDS011;11481;53.694;9.910;2024-01-16T00:05:50;7.95;;;3.33;;
22628;SDS011;11481;53.694;9.910;2024-01-16T00:08:16;13.45;;;4.20;;
22628;SDS011;11481;53.694;9.910;2024-01-16T00:10:44;7.28;;;3.80;;
22628;SDS011;11481;53.694;9.910;2024-01-16T00:13:10;8.93;;;4.22;;
22628;SDS011;11481;53.694;9.910;2024-01-16T00:15:37;10.65;;;4.78;;
22628;SDS011;11481;53.694;9.910;2024-01-16T00:18:04;6.93;;;4.03;;
22628;SDS011;11481;53.694;9.910;2024-01-16T00:20:31;9.73;;;4.13;;
22628;SDS011;11481;53.694;9.910;2024-01-16T00:22:59;9.25;;;4.00;;
22628;SDS011;11481;53.694;9.910;2024-01-16T00:25:26;11.35;;;3.88;;
22628;SDS011;11481;53.694;9.910;2024-01-16T00:27:54;6.10;;;3.42;;
22628;SDS011;11481;53.694;9.910;2024-01-16T00:30:21;6.20;;;3.20;;
22628;SDS011;11481;53.694;9.910;2024-01-16T00:32:48;7.50;;;3.80;;
22628;SDS011;11481;53.694;9.910;2024-01-16T00:35:15;7.10;;;3.70;;
22628;SDS011;11481;53.694;9.910;2024-01-16T00:37:42;6.57;;;3.42;;
22628;SDS011;11481;53.694;9.910;2024-01-16T00:40:09;6.43;;;3.58;;
22628;SDS011;11481;53.694;9.910;2024-01-16T00:42:36;9.27;;;3.60;;
22628;SDS011;11481;53.694;9.910;2024-01-16T00:45:03;5.88;;;3.40;;
22628;SDS011;11481;53.694;9.910;2024-01-16T00:47:30;9.27;;;3.50;;
22628;SDS011;11481;53.694;9.910;2024-01-16T00:49:58;11.02;;;3.50;;
22628;SDS011;11481;53.694;9.910;2024-01-16T00:52:26;6.55;;;3.35;;
22628;SDS011;11481;53.694;9.910;2024-01-16T00:54:53;9.50;;;3.63;;
22628;SDS011;11481;53.694;9.910;2024-01-16T00:57:20;7.38;;;3.65;;
22628;SDS011;11481;53.694;9.910;2024-01-16T00:59:47;8.00;;;3.42;;
22628;SDS011;11481;53.694;9.910;2024-01-16T01:02:14;8.57;;;3.70;;
22628;SDS011;11481;53.694;9.910;2024-01-16T01:04:42;8.60;;;3.53;;
22628;SDS011;11481;53.694;9.910;2024-01-16T01:07:12;6.40;;;3.70;;
22628;SDS011;11481;53.694;9.910;2024-01-16T01:09:39;6.60;;;3.92;;
22628;SDS011;11481;53.694;9.910;2024-01-16T01:12:07;7.72;;;3.88;;
22628;SDS011;11481;53.694;9.910;2024-01-16T01:14:34;6.93;;;4.13;;
22628;SDS011;11481;53.694;9.910;2024-01-16T01:17:01;10.73;;;3.95;;
22628;SDS011;11481;53.694;9.910;2024-01-16T01:19:28;9.27;;;4.13;;
22628;SDS011;11481;53.694;9.910;2024-01-16T01:21:55;8.82;;;4.03;;
22628;SDS011;11481;53.694;9.910;2024-01-16T01:24:22;8.05;;;4.18;;
22628;SDS011;11481;53.694;9.910;2024-01-16T01:26:49;8.95;;;4.13;;
22628;SDS011;11481;53.694;9.910;2024-01-16T01:29:16;7.90;;;3.78;;
22628;SDS011;11481;53.694;9.910;2024-01-16T01:31:46;5.47;;;3.50;;
22628;SDS011;11481;53.694;9.910;2024-01-16T01:34:15;6.97;;;3.45;;
22628;SDS011;11481;53.694;9.910;2024-01-16T01:36:43;8.45;;;3.83;;
22628;SDS011;11481;53.694;9.910;2024-01-16T01:39:10;6.35;;;3.55;;
22628;SDS011;11481;53.694;9.910;2024-01-16T01:41:37;8.45;;;4.05;;
22628;SDS011;11481;53.694;9.910;2024-01-16T01:44:05;6.68;;;3.65;;
22628;SDS011;11481;53.694;9.910;2024-01-16T01:46:32;10.73;;;4.20;;
22628;SDS011;11481;53.694;9.910;2024-01-16T01:49:01;7.93;;;4.40;;
22628;SDS011;11481;53.694;9.910;2024-01-16T01:51:29;8.90;;;3.85;;
22628;SDS011;11481;53.694;9.910;2024-01-16T01:53:56;9.90;;;4.72;;
22628;SDS011;11481;53.694;9.910;2024-01-16T01:56:24;7.22;;;3.70;;
22628;SDS011;11481;53.694;9.910;2024-01-16T01:58:53;6.93;;;4.03;;
22628;SDS011;11481;53.694;9.910;2024-01-16T02:01:22;6.90;;;4.22;;
22628;SDS011;11481;53.694;9.910;2024-01-16T02:03:51;7.50;;;4.20;;
22628;SDS011;11481;53.694;9.910;2024-01-16T02:06:20;11.02;;;4.75;;
22628;SDS011;11481;53.694;9.910;2024-01-16T02:08:48;10.75;;;4.78;;
22628;SDS011;11481;53.694;9.910;2024-01-16T02:11:15;8.52;;;4.93;;
22628;SDS011;11481;53.694;9.910;2024-01-16T02:13:42;14.07;;;3.97;;
22628;SDS011;11481;53.694;9.910;2024-01-16T02:16:19;7.70;;;4.07;;
22628;SDS011;11481;53.694;9.910;2024-01-16T02:18:50;6.97;;;3.85;;
22628;SDS011;11481;53.694;9.910;2024-01-16T02:21:20;7.47;;;4.03;;
22628;SDS011;11481;53.694;9.910;2024-01-16T02:23:49;9.00;;;4.63;;
22628;SDS011;11481;53.694;9.910;2024-01-16T02:26:16;9.73;;;4.90;;
22628;SDS011;11481;53.694;9.910;2024-01-16T02:28:43;8.05;;;4.65;;
22628;SDS011;11481;53.694;9.910;2024-01-16T02:31:25;7.25;;;4.32;;
22628;SDS011;11481;53.694;9.910;2024-01-16T02:33:52;8.30;;;4.55;;
22628;SDS011;11481;53.694;9.910;2024-01-16T02:36:19;9.52;;;4.82;;
22628;SDS011;11481;53.694;9.910;2024-01-16T02:38:45;10.27;;;4.60;;
22628;SDS011;11481;53.694;9.910;2024-01-16T02:41:13;15.63;;;5.55;;
22628;SDS011;11481;53.694;9.910;2024-01-16T02:43:42;10.20;;;5.43;;
22628;SDS011;11481;53.694;9.910;2024-01-16T02:46:09;8.60;;;4.95;;
22628;SDS011;11481;53.694;9.910;2024-01-16T02:48:36;13.55;;;5.63;;
22628;SDS011;11481;53.694;9.910;2024-01-16T02:51:04;9.88;;;6.28;;
22628;SDS011;11481;53.694;9.910;2024-01-16T02:53:31;10.23;;;6.18;;
22628;SDS011;11481;53.694;9.910;2024-01-16T02:55:58;13.52;;;6.72;;
22628;SDS011;11481;53.694;9.910;2024-01-16T02:58:28;12.90;;;7.00;;
22628;SDS011;11481;53.694;9.910;2024-01-16T03:00:55;13.30;;;6.78;;
22628;SDS011;11481;53.694;9.910;2024-01-16T03:03:23;11.80;;;7.00;;
22628;SDS011;11481;53.694;9.910;2024-01-16T03:05:51;15.07;;;8.18;;
22628;SDS011;11481;53.694;9.910;2024-01-16T03:08:18;16.13;;;8.55;;
22628;SDS011;11481;53.694;9.910;2024-01-16T03:10:46;15.15;;;8.52;;
22628;SDS011;11481;53.694;9.910;2024-01-16T03:13:13;17.45;;;8.80;;
22628;SDS011;11481;53.694;9.910;2024-01-16T03:15:39;20.17;;;9.82;;
22628;SDS011;11481;53.694;9.910;2024-01-16T03:18:07;15.00;;;8.73;;
22628;SDS011;11481;53.694;9.910;2024-01-16T03:20:34;21.17;;;9.40;;
22628;SDS011;11481;53.694;9.910;2024-01-16T03:23:00;19.08;;;9.40;;
22628;SDS011;11481;53.694;9.910;2024-01-16T03:25:27;15.52;;;7.10;;
22628;SDS011;11481;53.694;9.910;2024-01-16T03:27:54;17.27;;;7.70;;
22628;SDS011;11481;53.694;9.910;2024-01-16T03:30:21;15.63;;;7.95;;
22628;SDS011;11481;53.694;9.910;2024-01-16T03:32:48;12.57;;;6.97;;
22628;SDS011;11481;53.694;9.910;2024-01-16T03:35:15;13.45;;;7.28;;
22628;SDS011;11481;53.694;9.910;2024-01-16T03:37:41;13.50;;;7.22;;
22628;SDS011;11481;53.694;9.910;2024-01-16T03:40:08;13.57;;;7.57;;
22628;SDS011;11481;53.694;9.910;2024-01-16T03:42:37;12.77;;;7.40;;
22628;SDS011;11481;53.694;9.910;2024-01-16T03:45:05;14.93;;;7.68;;
22628;SDS011;11481;53.694;9.910;2024-01-16T03:47:32;13.18;;;8.13;;
22628;SDS011;11481;53.694;9.910;2024-01-16T03:49:59;17.17;;;8.73;;
22628;SDS011;11481;53.694;9.910;2024-01-16T03:52:26;17.05;;;7.65;;
22628;SDS011;11481;53.694;9.910;2024-01-16T03:54:53;13.07;;;7.85;;
22628;SDS011;11481;53.694;9.910;2024-01-16T03:57:19;14.73;;;8.15;;
22628;SDS011;11481;53.694;9.910;2024-01-16T03:59:46;12.48;;;6.97;;
22628;SDS011;11481;53.694;9.910;2024-01-16T04:02:13;14.23;;;7.53;;
22628;SDS011;11481;53.694;9.910;2024-01-16T04:04:40;15.15;;;8.73;;
22628;SDS011;11481;53.694;9.910;2024-01-16T04:07:07;15.25;;;7.95;;
22628;SDS011;11481;53.694;9.910;2024-01-16T04:09:33;16.38;;;8.48;;
22628;SDS011;11481;53.694;9.910;2024-01-16T04:12:00;16.40;;;8.45;;
22628;SDS011;11481;53.694;9.910;2024-01-16T04:14:27;15.98;;;8.32;;
22628;SDS011;11481;53.694;9.910;2024-01-16T04:16:54;15.93;;;8.70;;
22628;SDS011;11481;53.694;9.910;2024-01-16T04:19:20;19.77;;;9.02;;
22628;SDS011;11481;53.694;9.910;2024-01-16T04:21:47;18.63;;;9.38;;
22628;SDS011;11481;53.694;9.910;2024-01-16T04:24:14;17.98;;;8.38;;
22628;SDS011;11481;53.694;9.910;2024-01-16T04:26:40;16.13;;;9.13;;
22628;SDS011;11481;53.694;9.910;2024-01-16T04:29:07;16.20;;;8.05;;
22628;SDS011;11481;53.694;9.910;2024-01-16T04:31:38;16.45;;;9.00;;
22628;SDS011;11481;53.694;9.910;2024-01-16T04:34:06;17.48;;;8.82;;
22628;SDS011;11481;53.694;9.910;2024-01-16T04:36:33;17.85;;;9.88;;
22628;SDS011;11481;53.694;9.910;2024-01-16T04:39:00;18.90;;;9.30;;
22628;SDS011;11481;53.694;9.910;2024-01-16T04:41:27;15.82;;;8.70;;
22628;SDS011;11481;53.694;9.910;2024-01-16T04:43:53;15.20;;;8.45;;
22628;SDS011;11481;53.694;9.910;2024-01-16T04:46:20;16.35;;;8.10;;
22628;SDS011;11481;53.694;9.910;2024-01-16T04:48:47;13.82;;;7.80;;
22628;SDS011;11481;53.694;9.910;2024-01-16T04:51:14;19.85;;;8.27;;
22628;SDS011;11481;53.694;9.910;2024-01-16T04:53:40;14.90;;;8.13;;
22628;SDS011;11481;53.694;9.910;2024-01-16T04:56:07;13.55;;;7.50;;
22628;SDS011;11481;53.694;9.910;2024-01-16T04:58:36;11.43;;;7.50;;
22628;SDS011;11481;53.694;9.910;2024-01-16T05:01:02;18.40;;;8.77;;
22628;SDS011;11481;53.694;9.910;2024-01-16T05:03:29;20.27;;;7.40;;
22628;SDS011;11481;53.694;9.910;2024-01-16T05:05:56;19.73;;;8.63;;
22628;SDS011;11481;53.694;9.910;2024-01-16T05:08:23;15.63;;;7.28;;
22628;SDS011;11481;53.694;9.910;2024-01-16T05:10:50;16.83;;;7.45;;
22628;SDS011;11481;53.694;9.910;2024-01-16T05:13:17;15.50;;;7.95;;
22628;SDS011;11481;53.694;9.910;2024-01-16T05:15:44;14.88;;;7.15;;
22628;SDS011;11481;53.694;9.910;2024-01-16T05:18:11;11.68;;;6.53;;
22628;SDS011;11481;53.694;9.910;2024-01-16T05:20:38;12.73;;;6.57;;
22628;SDS011;11481;53.694;9.910;2024-01-16T05:23:04;11.77;;;5.90;;
22628;SDS011;11481;53.694;9.910;2024-01-16T05:25:32;13.02;;;6.25;;
22628;SDS011;11481;53.694;9.910;2024-01-16T05:27:58;12.85;;;6.40;;
22628;SDS011;11481;53.694;9.910;2024-01-16T05:30:25;11.38;;;5.30;;
22628;SDS011;11481;53.694;9.910;2024-01-16T05:32:52;10.63;;;5.35;;
22628;SDS011;11481;53.694;9.910;2024-01-16T05:35:19;12.55;;;5.78;;
22628;SDS011;11481;53.694;9.910;2024-01-16T05:37:47;12.23;;;5.75;;
22628;SDS011;11481;53.694;9.910;2024-01-16T05:40:14;14.82;;;5.18;;
22628;SDS011;11481;53.694;9.910;2024-01-16T05:42:41;12.93;;;4.93;;
22628;SDS011;11481;53.694;9.910;2024-01-16T05:45:08;10.32;;;4.95;;
22628;SDS011;11481;53.694;9.910;2024-01-16T05:47:35;10.10;;;4.55;;
22628;SDS011;11481;53.694;9.910;2024-01-16T05:50:02;9.48;;;5.07;;
22628;SDS011;11481;53.694;9.910;2024-01-16T05:52:29;11.55;;;4.85;;
22628;SDS011;11481;53.694;9.910;2024-01-16T05:54:56;8.82;;;4.72;;
22628;SDS011;11481;53.694;9.910;2024-01-16T05:57:24;10.68;;;4.82;;
22628;SDS011;11481;53.694;9.910;2024-01-16T05:59:51;8.75;;;3.95;;
22628;SDS011;11481;53.694;9.910;2024-01-16T06:02:18;8.45;;;4.50;;
22628;SDS011;11481;53.694;9.910;2024-01-16T06:04:44;8.15;;;3.55;;
22628;SDS011;11481;53.694;9.910;2024-01-16T06:07:12;5.53;;;2.90;;
22628;SDS011;11481;53.694;9.910;2024-01-16T06:09:39;7.85;;;3.25;;
22628;SDS011;11481;53.694;9.910;2024-01-16T06:12:06;5.72;;;3.08;;
22628;SDS011;11481;53.694;9.910;2024-01-16T06:14:33;7.20;;;2.92;;
22628;SDS011;11481;53.694;9.910;2024-01-16T06:17:00;6.00;;;2.78;;
22628;SDS011;11481;53.694;9.910;2024-01-16T06:19:27;6.43;;;2.10;;
22628;SDS011;11481;53.694;9.910;2024-01-16T06:21:54;6.20;;;2.65;;
22628;SDS011;11481;53.694;9.910;2024-01-16T06:24:21;5.75;;;2.53;;
22628;SDS011;11481;53.694;9.910;2024-01-16T06:26:47;4.85;;;2.28;;
22628;SDS011;11481;53.694;9.910;2024-01-16T06:29:14;4.93;;;2.65;;
22628;SDS011;11481;53.694;9.910;2024-01-16T06:31:56;5.22;;;1.95;;
22628;SDS011;11481;53.694;9.910;2024-01-16T06:34:23;5.88;;;2.10;;
22628;SDS011;11481;53.694;9.910;2024-01-16T06:36:50;7.18;;;2.22;;
22628;SDS011;11481;53.694;9.910;2024-01-16T06:39:17;4.57;;;1.88;;
22628;SDS011;11481;53.694;9.910;2024-01-16T06:41:43;3.40;;;1.63;;
22628;SDS011;11481;53.694;9.910;2024-01-16T06:44:11;3.05;;;1.70;;
22628;SDS011;11481;53.694;9.910;2024-01-16T06:46:38;6.78;;;1.80;;
22628;SDS011;11481;53.694;9.910;2024-01-16T06:49:04;5.82;;;1.73;;
22628;SDS011;11481;53.694;9.910;2024-01-16T06:51:31;4.03;;;2.08;;
22628;SDS011;11481;53.694;9.910;2024-01-16T06:53:58;5.35;;;2.08;;
22628;SDS011;11481;53.694;9.910;2024-01-16T06:56:25;6.70;;;1.98;;
22628;SDS011;11481;53.694;9.910;2024-01-16T06:58:52;4.60;;;1.65;;
22628;SDS011;11481;53.694;9.910;2024-01-16T07:01:18;8.70;;;2.17;;
22628;SDS011;11481;53.694;9.910;2024-01-16T07:03:45;5.90;;;1.73;;
22628;SDS011;11481;53.694;9.910;2024-01-16T07:06:12;6.03;;;1.85;;
22628;SDS011;11481;53.694;9.910;2024-01-16T07:08:39;4.32;;;1.80;;
22628;SDS011;11481;53.694;9.910;2024-01-16T07:11:06;8.75;;;2.63;;
22628;SDS011;11481;53.694;9.910;2024-01-16T07:13:35;7.68;;;2.40;;
22628;SDS011;11481;53.694;9.910;2024-01-16T07:16:01;7.38;;;2.28;;
22628;SDS011;11481;53.694;9.910;2024-01-16T07:18:28;3.70;;;1.98;;
22628;SDS011;11481;53.694;9.910;2024-01-16T07:20:55;7.75;;;2.25;;
22628;SDS011;11481;53.694;9.910;2024-01-16T07:23:22;10.35;;;2.88;;
22628;SDS011;11481;53.694;9.910;2024-01-16T07:25:49;7.65;;;2.40;;
22628;SDS011;11481;53.694;9.910;2024-01-16T07:28:16;5.47;;;2.28;;
22628;SDS011;11481;53.694;9.910;2024-01-16T07:30:42;7.85;;;2.28;;
22628;SDS011;11481;53.694;9.910;2024-01-16T07:33:09;7.20;;;2.58;;
22628;SDS011;11481;53.694;9.910;2024-01-16T07:35:38;7.80;;;2.70;;
22628;SDS011;11481;53.694;9.910;2024-01-16T07:38:07;5.03;;;1.85;;
22628;SDS011;11481;53.694;9.910;2024-01-16T07:40:34;6.85;;;2.40;;
22628;SDS011;11481;53.694;9.910;2024-01-16T07:43:01;5.18;;;2.03;;
22628;SDS011;11481;53.694;9.910;2024-01-16T07:45:28;4.47;;;2.10;;
22628;SDS011;11481;53.694;9.910;2024-01-16T07:47:55;5.72;;;1.98;;
22628;SDS011;11481;53.694;9.910;2024-01-16T07:50:22;6.85;;;2.58;;
22628;SDS011;11481;53.694;9.910;2024-01-16T07:52:48;5.90;;;2.25;;
22628;SDS011;11481;53.694;9.910;2024-01-16T07:55:15;4.63;;;2.15;;
22628;SDS011;11481;53.694;9.910;2024-01-16T07:57:48;5.43;;;2.28;;
22628;SDS011;11481;53.694;9.910;2024-01-16T08:00:15;7.50;;;2.80;;
22628;SDS011;11481;53.694;9.910;2024-01-16T08:02:42;5.07;;;2.70;;
22628;SDS011;11481;53.694;9.910;2024-01-16T08:05:10;6.80;;;2.38;;
22628;SDS011;11481;53.694;9.910;2024-01-16T08:07:37;8.55;;;2.72;;
22628;SDS011;11481;53.694;9.910;2024-01-16T08:10:04;3.38;;;2.50;;
22628;SDS011;11481;53.694;9.910;2024-01-16T08:12:30;7.88;;;2.58;;
22628;SDS011;11481;53.694;9.910;2024-01-16T08:14:58;10.57;;;2.85;;
22628;SDS011;11481;53.694;9.910;2024-01-16T08:17:25;7.75;;;2.55;;
22628;SDS011;11481;53.694;9.910;2024-01-16T08:19:52;4.30;;;2.35;;
22628;SDS011;11481;53.694;9.910;2024-01-16T08:22:19;4.35;;;2.50;;
22628;SDS011;11481;53.694;9.910;2024-01-16T08:24:46;4.70;;;2.30;;
22628;SDS011;11481;53.694;9.910;2024-01-16T08:27:12;7.88;;;2.38;;
22628;SDS011;11481;53.694;9.910;2024-01-16T08:29:40;6.97;;;2.70;;
22628;SDS011;11481;53.694;9.910;2024-01-16T08:32:06;5.40;;;2.17;;
22628;SDS011;11481;53.694;9.910;2024-01-16T08:34:33;9.38;;;2.63;;
22628;SDS011;11481;53.694;9.910;2024-01-16T08:37:00;11.02;;;2.55;;
22628;SDS011;11481;53.694;9.910;2024-01-16T08:39:27;7.32;;;2.28;;
22628;SDS011;11481;53.694;9.910;2024-01-16T08:41:55;5.93;;;3.22;;
22628;SDS011;11481;53.694;9.910;2024-01-16T08:44:23;3.55;;;2.50;;
22628;SDS011;11481;53.694;9.910;2024-01-16T08:46:50;8.85;;;3.40;;
22628;SDS011;11481;53.694;9.910;2024-01-16T08:49:17;3.80;;;2.50;;
22628;SDS011;11481;53.694;9.910;2024-01-16T08:51:46;6.63;;;3.15;;
22628;SDS011;11481;53.694;9.910;2024-01-16T08:54:13;11.23;;;3.97;;
22628;SDS011;11481;53.694;9.910;2024-01-16T08:56:40;9.43;;;3.13;;
22628;SDS011;11481;53.694;9.910;2024-01-16T08:59:07;5.55;;;2.30;;
22628;SDS011;11481;53.694;9.910;2024-01-16T09:01:34;11.68;;;2.85;;
22628;SDS011;11481;53.694;9.910;2024-01-16T09:04:01;8.68;;;2.78;;
22628;SDS011;11481;53.694;9.910;2024-01-16T09:06:28;6.93;;;2.50;;
22628;SDS011;11481;53.694;9.910;2024-01-16T09:08:54;13.15;;;3.50;;
22628;SDS011;11481;53.694;9.910;2024-01-16T09:11:21;7.65;;;2.75;;
22628;SDS011;11481;53.694;9.910;2024-01-16T09:13:48;8.27;;;2.60;;
22628;SDS011;11481;53.694;9.910;2024-01-16T09:16:15;7.82;;;3.00;;
22628;SDS011;11481;53.694;9.910;2024-01-16T09:18:41;6.47;;;2.50;;
22628;SDS011;11481;53.694;9.910;2024-01-16T09:21:08;9.70;;;3.22;;
22628;SDS011;11481;53.694;9.910;2024-01-16T09:23:35;8.93;;;2.75;;
22628;SDS011;11481;53.694;9.910;2024-01-16T09:26:02;8.45;;;2.95;;
22628;SDS011;11481;53.694;9.910;2024-01-16T09:28:28;11.25;;;2.88;;
22628;SDS011;11481;53.694;9.910;2024-01-16T09:30:55;10.82;;;2.72;;
22628;SDS011;11481;53.694;9.910;2024-01-16T09:33:25;8.85;;;2.83;;
22628;SDS011;11481;53.694;9.910;2024-01-16T09:35:52;10.40;;;3.17;;
22628;SDS011;11481;53.694;9.910;2024-01-16T09:38:19;8.30;;;3.08;;
22628;SDS011;11481;53.694;9.910;2024-01-16T09:40:48;6.20;;;2.67;;
22628;SDS011;11481;53.694;9.910;2024-01-16T09:43:17;7.47;;;2.63;;
22628;SDS011;11481;53.694;9.910;2024-01-16T09:45:44;9.23;;;2.83;;
22628;SDS011;11481;53.694;9.910;2024-01-16T09:48:13;6.75;;;2.30;;
22628;SDS011;11481;53.694;9.910;2024-01-16T09:50:41;3.53;;;2.08;;
22628;SDS011;11481;53.694;9.910;2024-01-16T09:53:08;8.98;;;2.50;;
22628;SDS011;11481;53.694;9.910;2024-01-16T09:55:35;8.02;;;2.60;;
22628;SDS011;11481;53.694;9.910;2024-01-16T09:58:01;7.05;;;2.20;;
22628;SDS011;11481;53.694;9.910;2024-01-16T10:00:31;5.95;;;2.10;;
22628;SDS011;11481;53.694;9.910;2024-01-16T10:02:59;8.20;;;2.60;;
22628;SDS011;11481;53.694;9.910;2024-01-16T10:05:27;6.80;;;2.72;;
22628;SDS011;11481;53.694;9.910;2024-01-16T10:07:56;13.27;;;3.30;;
22628;SDS011;11481;53.694;9.910;2024-01-16T10:10:24;6.72;;;2.22;;
22628;SDS011;11481;53.694;9.910;2024-01-16T10:13:11;7.20;;;2.75;;
22628;SDS011;11481;53.694;9.910;2024-01-16T10:15:40;6.85;;;2.65;;
22628;SDS011;11481;53.694;9.910;2024-01-16T10:18:13;5.65;;;2.10;;
22628;SDS011;11481;53.694;9.910;2024-01-16T10:20:49;10.80;;;2.33;;
22628;SDS011;11481;53.694;9.910;2024-01-16T10:23:22;6.78;;;2.42;;
22628;SDS011;11481;53.694;9.910;2024-01-16T10:26:04;4.40;;;2.35;;
22628;SDS011;11481;53.694;9.910;2024-01-16T10:28:35;5.82;;;2.50;;
22628;SDS011;11481;53.694;9.910;2024-01-16T10:31:04;6.00;;;2.20;;
22628;SDS011;11481;53.694;9.910;2024-01-16T10:33:32;7.90;;;2.13;;
22628;SDS011;11481;53.694;9.910;2024-01-16T10:36:07;6.00;;;2.22;;
22628;SDS011;11481;53.694;9.910;2024-01-16T10:38:37;10.63;;;2.60;;
22628;SDS011;11481;53.694;9.910;2024-01-16T10:41:24;9.15;;;2.50;;
22628;SDS011;11481;53.694;9.910;2024-01-16T10:44:07;6.30;;;1.92;;
22628;SDS011;11481;53.694;9.910;2024-01-16T10:46:35;8.52;;;2.08;;
22628;SDS011;11481;53.694;9.910;2024-01-16T10:49:03;3.42;;;1.95;;
22628;SDS011;11481;53.694;9.910;2024-01-16T10:51:31;7.43;;;2.55;;
22628;SDS011;11481;53.694;9.910;2024-01-16T10:53:59;4.60;;;1.80;;
22628;SDS011;11481;53.694;9.910;2024-01-16T10:56:29;5.68;;;1.80;;
22628;SDS011;11481;53.694;9.910;2024-01-16T11:01:45;6.75;;;2.28;;
22628;SDS011;11481;53.694;9.910;2024-01-16T11:04:18;9.63;;;2.45;;
22628;SDS011;11481;53.694;9.910;2024-01-16T11:06:47;6.03;;;2.30;;
22628;SDS011;11481;53.694;9.910;2024-01-16T11:09:17;7.10;;;1.95;;
22628;SDS011;11481;53.694;9.910;2024-01-16T11:11:44;6.03;;;2.05;;
22628;SDS011;11481;53.694;9.910;2024-01-16T11:14:12;5.93;;;2.03;;
22628;SDS011;11481;53.694;9.910;2024-01-16T11:16:41;3.47;;;1.92;;
22628;SDS011;11481;53.694;9.910;2024-01-16T11:19:09;6.65;;;2.17;;
22628;SDS011;11481;53.694;9.910;2024-01-16T11:21:57;9.20;;;2.30;;
22628;SDS011;11481;53.694;9.910;2024-01-16T11:24:25;5.00;;;2.03;;
22628;SDS011;11481;53.694;9.910;2024-01-16T11:26:52;11.60;;;2.00;;
22628;SDS011;11481;53.694;9.910;2024-01-16T11:31:55;10.20;;;2.15;;
22628;SDS011;11481;53.694;9.910;2024-01-16T11:37:15;5.18;;;1.95;;
22628;SDS011;11481;53.694;9.910;2024-01-16T11:42:48;4.65;;;1.73;;
22628;SDS011;11481;53.694;9.910;2024-01-16T11:50:36;4.97;;;2.03;;
22628;SDS011;11481;53.694;9.910;2024-01-16T11:53:03;5.00;;;2.55;;
22628;SDS011;11481;53.694;9.910;2024-01-16T11:55:31;5.38;;;2.08;;
22628;SDS011;11481;53.694;9.910;2024-01-16T12:00:40;4.15;;;1.95;;
22628;SDS011;11481;53.694;9.910;2024-01-16T12:03:08;7.65;;;1.85;;
22628;SDS011;11481;53.694;9.910;2024-01-16T12:05:37;11.32;;;2.30;;
22628;SDS011;11481;53.694;9.910;2024-01-16T12:08:03;9.82;;;2.17;;
22628;SDS011;11481;53.694;9.910;2024-01-16T12:10:32;7.80;;;1.85;;
22628;SDS011;11481;53.694;9.910;2024-01-16T12:13:11;8.50;;;2.20;;
22628;SDS011;11481;53.694;9.910;2024-01-16T12:15:38;14.13;;;2.67;;
22628;SDS011;11481;53.694;9.910;2024-01-16T12:18:05;11.18;;;2.50;;
22628;SDS011;11481;53.694;9.910;2024-01-16T12:20:38;8.60;;;2.55;;
22628;SDS011;11481;53.694;9.910;2024-01-16T12:23:05;10.35;;;1.90;;
22628;SDS011;11481;53.694;9.910;2024-01-16T12:25:34;5.15;;;1.85;;
22628;SDS011;11481;53.694;9.910;2024-01-16T12:28:21;9.35;;;2.50;;
22628;SDS011;11481;53.694;9.910;2024-01-16T12:30:58;8.93;;;2.22;;
22628;SDS011;11481;53.694;9.910;2024-01-16T12:33:26;6.93;;;2.10;;
22628;SDS011;11481;53.694;9.910;2024-01-16T12:36:00;4.65;;;1.90;;
22628;SDS011;11481;53.694;9.910;2024-01-16T12:38:31;9.13;;;2.15;;
22628;SDS011;11481;53.694;9.910;2024-01-16T12:40:58;6.03;;;2.13;;
22628;SDS011;11481;53.694;9.910;2024-01-16T12:43:28;5.75;;;1.98;;
22628;SDS011;11481;53.694;9.910;2024-01-16T12:45:56;10.90;;;2.55;;
22628;SDS011;11481;53.694;9.910;2024-01-16T12:48:23;7.68;;;2.53;;
22628;SDS011;11481;53.694;9.910;2024-01-16T12:51:02;6.32;;;2.47;;
22628;SDS011;11481;53.694;9.910;2024-01-16T12:53:31;7.53;;;1.65;;
22628;SDS011;11481;53.694;9.910;2024-01-16T12:55:58;8.00;;;2.20;;
22628;SDS011;11481;53.694;9.910;2024-01-16T12:58:31;6.28;;;1.95;;
22628;SDS011;11481;53.694;9.910;2024-01-16T13:04:04;7.15;;;1.88;;
22628;SDS011;11481;53.694;9.910;2024-01-16T13:06:32;9.18;;;2.38;;
22628;SDS011;11481;53.694;9.910;2024-01-16T13:11:50;8.95;;;2.17;;
22628;SDS011;11481;53.694;9.910;2024-01-16T13:14:19;7.80;;;2.63;;
22628;SDS011;11481;53.694;9.910;2024-01-16T13:16:49;8.98;;;2.03;;
22628;SDS011;11481;53.694;9.910;2024-01-16T13:19:17;6.75;;;2.42;;
22628;SDS011;11481;53.694;9.910;2024-01-16T13:21:46;7.75;;;2.60;;
22628;SDS011;11481;53.694;9.910;2024-01-16T13:24:13;8.65;;;2.60;;
22628;SDS011;11481;53.694;9.910;2024-01-16T13:26:40;8.40;;;2.60;;
22628;SDS011;11481;53.694;9.910;2024-01-16T13:29:07;6.15;;;2.20;;
22628;SDS011;11481;53.694;9.910;2024-01-16T13:31:35;6.45;;;2.35;;
22628;SDS011;11481;53.694;9.910;2024-01-16T13:34:02;6.43;;;2.30;;
22628;SDS011;11481;53.694;9.910;2024-01-16T13:36:29;7.57;;;2.40;;
22628;SDS011;11481;53.694;9.910;2024-01-16T13:39:04;4.05;;;2.20;;
22628;SDS011;11481;53.694;9.910;2024-01-16T13:41:39;5.45;;;2.35;;
22628;SDS011;11481;53.694;9.910;2024-01-16T13:44:05;6.50;;;2.38;;
22628;SDS011;11481;53.694;9.910;2024-01-16T13:46:32;5.85;;;2.30;;
22628;SDS011;11481;53.694;9.910;2024-01-16T13:49:19;4.90;;;1.90;;
22628;SDS011;11481;53.694;9.910;2024-01-16T13:51:46;6.07;;;2.53;;
22628;SDS011;11481;53.694;9.910;2024-01-16T13:54:13;6.22;;;1.90;;
22628;SDS011;11481;53.694;9.910;2024-01-16T13:56:39;6.13;;;2.35;;
22628;SDS011;11481;53.694;9.910;2024-01-16T13:59:26;11.75;;;2.83;;
22628;SDS011;11481;53.694;9.910;2024-01-16T14:01:53;5.95;;;2.70;;
22628;SDS011;11481;53.694;9.910;2024-01-16T14:04:19;9.57;;;2.42;;
22628;SDS011;11481;53.694;9.910;2024-01-16T14:06:47;8.85;;;2.25;;
22628;SDS011;11481;53.694;9.910;2024-01-16T14:09:34;7.13;;;2.47;;
22628;SDS011;11481;53.694;9.910;2024-01-16T14:12:02;9.18;;;3.50;;
22628;SDS011;11481;53.694;9.910;2024-01-16T14:14:29;7.97;;;3.05;;
22628;SDS011;11481;53.694;9.910;2024-01-16T14:16:57;5.45;;;2.88;;
22628;SDS011;11481;53.694;9.910;2024-01-16T14:19:27;9.05;;;2.90;;
22628;SDS011;11481;53.694;9.910;2024-01-16T14:21:57;5.32;;;3.28;;
22628;SDS011;11481;53.694;9.910;2024-01-16T14:24:24;12.35;;;4.07;;
22628;SDS011;11481;53.694;9.910;2024-01-16T14:26:52;7.90;;;3.25;;
22628;SDS011;11481;53.694;9.910;2024-01-16T14:29:18;7.38;;;3.50;;
22628;SDS011;11481;53.694;9.910;2024-01-16T14:31:45;7.68;;;3.05;;
22628;SDS011;11481;53.694;9.910;2024-01-16T14:34:16;7.15;;;3.53;;
22628;SDS011;11481;53.694;9.910;2024-01-16T14:36:45;9.50;;;2.80;;
22628;SDS011;11481;53.694;9.910;2024-01-16T14:39:12;12.65;;;3.30;;
22628;SDS011;11481;53.694;9.910;2024-01-16T14:41:44;5.85;;;2.97;;
22628;SDS011;11481;53.694;9.910;2024-01-16T14:44:11;9.20;;;3.30;;
22628;SDS011;11481;53.694;9.910;2024-01-16T14:46:40;10.20;;;3.22;;
22628;SDS011;11481;53.694;9.910;2024-01-16T14:49:06;8.30;;;3.05;;
22628;SDS011;11481;53.694;9.910;2024-01-16T14:51:34;6.70;;;2.83;;
22628;SDS011;11481;53.694;9.910;2024-01-16T14:54:01;7.40;;;2.90;;
22628;SDS011;11481;53.694;9.910;2024-01-16T14:56:28;9.40;;;3.10;;
22628;SDS011;11481;53.694;9.910;2024-01-16T14:58:57;9.45;;;3.13;;
22628;SDS011;11481;53.694;9.910;2024-01-16T15:01:23;7.65;;;2.95;;
22628;SDS011;11481;53.694;9.910;2024-01-16T15:03:50;7.72;;;2.97;;
22628;SDS011;11481;53.694;9.910;2024-01-16T15:06:17;6.18;;;2.70;;
22628;SDS011;11481;53.694;9.910;2024-01-16T15:08:44;6.82;;;2.95;;
22628;SDS011;11481;53.694;9.910;2024-01-16T15:11:11;9.02;;;2.92;;
22628;SDS011;11481;53.694;9.910;2024-01-16T15:13:38;8.40;;;2.70;;